This is the latest recevied weather packets stored in our database for station/object KF7SOJ. If no packets are shown the sender has not sent any weather packets the latest 10 day(s).
| Time | Temp. | Humidity | Pressure | Rain* | Wind** | Luminosity | Snow |
|---|---|---|---|---|---|---|---|
| 1787889613 | 23.89° C | 44% | 932.8 hPa | 0 mm | - | 0 W/m² | - |
| 1787889308 | 24.44° C | 41% | 932.8 hPa | 0 mm | - | 0 W/m² | - |
| 1787889007 | 24.44° C | 39% | 932.8 hPa | 0 mm | - | 0 W/m² | - |
| 1787888701 | 24.44° C | 38% | 932.7 hPa | 0 mm | - | 0 W/m² | - |
| 1787888397 | 25° C | 38% | 932.4 hPa | 0 mm | - | 0 W/m² | - |
| 1787888092 | 25° C | 38% | 932.3 hPa | 0 mm | - | 0 W/m² | - |
| 1787887788 | 25° C | 37% | 932.2 hPa | 0 mm | - | 0 W/m² | - |
| 1787887483 | 25° C | 37% | 931.8 hPa | 0 mm | - | 0 W/m² | - |
| 1787887183 | 24.44° C | 37% | 931.9 hPa | 0 mm | - | 0 W/m² | - |
| 1787886879 | 24.44° C | 39% | 931.4 hPa | 0 mm | - | 0 W/m² | - |
| 1787886579 | 23.89° C | 40% | 931.5 hPa | 0 mm | - | 0 W/m² | - |
| 1787886274 | 23.89° C | 40% | 931.3 hPa | 0 mm | - | 0 W/m² | - |
| 1787885973 | 23.89° C | 40% | 931.4 hPa | 0 mm | - | 0 W/m² | - |
| 1787885672 | 25° C | 38% | 931.5 hPa | 0 mm | - | 0 W/m² | - |
| 1787885367 | 25° C | 38% | 931.5 hPa | 0 mm | - | 0 W/m² | - |
| 1787885066 | 24.44° C | 39% | 931.8 hPa | 0 mm | - | 0 W/m² | - |
| 1787884761 | 24.44° C | 39% | 931.7 hPa | 0 mm | - | 0 W/m² | - |
| 1787884456 | 24.44° C | 39% | 931.7 hPa | 0 mm | - | 0 W/m² | - |
| 1787884152 | 24.44° C | 39% | 931.6 hPa | 0 mm | - | 0 W/m² | - |
| 1787883847 | 24.44° C | 40% | 931.7 hPa | 0 mm | - | 0 W/m² | - |
| 1787883542 | 25° C | 38% | 931.7 hPa | 0 mm | - | 0 W/m² | - |
| 1787883243 | 25° C | 38% | 931.6 hPa | 0 mm | - | 0 W/m² | - |
| 1787882937 | 24.44° C | 39% | 931.7 hPa | 0 mm | - | 1 W/m² | - |
| 1787882634 | 24.44° C | 39% | 931.6 hPa | 0 mm | - | 2 W/m² | - |
| 1787882329 | 24.44° C | 39% | 931.8 hPa | 0 mm | - | 4 W/m² | - |
* Rain latest hour (hover to see other rain measurements)
** Current wind speed in m/s (hover to see current wind gust speed)